Sincerity Ace — 3FFD7 — position and weather

sailwx.info

Track history (hours):
 
Tides and Currents Weather Stations Pressure Air Temp Water Temp Dewpoint Dewpoint Depression Visibility Wind Speed Wind Dir Waves Ship Positions

Sincerity Ace

Last reported at 2014-Aug-30 08:15 UTC. Time now 2014-Aug-30 10:27 UTC.
Position S 32°51' E 016°53'.

Length 200 m; draft 9.3 m.

Type: Cargo ship. MMSI: 351690000.

Date/timePositionNaut miles runAvg speedWind from/ knotsBaromVisibWave heightAir tempDewpointWater temp
2014-Aug-30 08:15S 32°51' E 016°53'5118.2
2014-Aug-30 05:26S 33°32' E 017°30'5117.6
2014-Aug-30 02:32S 34°12' E 018°08'1818.6
2014-Aug-30 01:33S 34°26' E 018°22'1716.8
2014-Aug-30 00:33S 34°33' E 018°40'1716.5
2014-Aug-29 23:33S 34°39' E 018°59'1816.4
2014-Aug-29 22:27S 34°46' E 019°19'1516.4
2014-Aug-29 21:32S 34°51' E 019°37'2216.1
2014-Aug-29 20:09S 34°56' E 020°03'1115.5
2014-Aug-29 19:27S 34°54' E 020°16'1515.5
2014-Aug-29 18:29S 34°50' E 020°34'233 9.3
2014-Aug-28 17:32S 34°14' E 025°13'41 8.2
2014-Aug-28 12:30S 34°01' E 026°00'6615.0
2014-Aug-28 08:07S 33°34' E 027°12'1016.0
2014-Aug-28 07:31S 33°28' E 027°22'1515.6
2014-Aug-28 06:33S 33°19' E 027°36'1716.3
2014-Aug-28 05:32S 33°09' E 027°52'67 3.2
2014-Aug-27 08:29S 33°45' E 026°43'1917.4
2014-Aug-27 07:25S 33°52' E 026°23'16 0.5
2014-Aug-26 02:19S 33°55' E 026°04'175 5.9
2014-Aug-24 20:30S 32°21' E 029°00'152 3.7
2014-Aug-23 03:32S 30°21' E 030°51'9 0.5
2014-Aug-22 07:33S 30°13' E 030°55'1716.9
2014-Aug-22 06:33S 29°58' E 031°04'6 6.1
2014-Aug-22 05:33S 29°52' E 031°02'1 0.7
2014-Aug-22 04:32S 29°52' E 031°02'0 0.0
2014-Aug-22 03:32S 29°52' E 031°02'0 0.0
2014-Aug-22 02:26S 29°52' E 031°02'0 0.0
2014-Aug-22 01:32S 29°52' E 031°02'0 0.0
2014-Aug-22 00:32S 29°52' E 031°02'0 0.0
2014-Aug-21 23:32S 29°52' E 031°02'0 0.0
2014-Aug-21 22:32S 29°52' E 031°02'0 0.0
2014-Aug-21 21:32S 29°52' E 031°02'0 0.0
2014-Aug-21 20:32S 29°52' E 031°02'0 0.0
2014-Aug-21 19:32S 29°52' E 031°02'0 0.0
2014-Aug-21 18:32S 29°52' E 031°02'0 0.0
2014-Aug-21 17:14S 29°52' E 031°02'0 0.0
2014-Aug-21 16:32S 29°52' E 031°02'0 0.0
2014-Aug-21 15:32S 29°52' E 031°02'0 0.0
2014-Aug-21 14:32S 29°52' E 031°02'0 0.0
2014-Aug-21 13:26S 29°52' E 031°02'0 0.0
2014-Aug-21 12:32S 29°52' E 031°02'0 0.0
2014-Aug-21 11:26S 29°52' E 031°02'0 0.0
2014-Aug-21 10:32S 29°52' E 031°02'0 0.0
2014-Aug-21 09:32S 29°52' E 031°02'0 0.0
2014-Aug-21 08:32S 29°52' E 031°02'0 0.0
2014-Aug-21 07:32S 29°52' E 031°02'0 0.0
2014-Aug-21 06:32S 29°52' E 031°02'0 0.0
2014-Aug-21 05:32S 29°52' E 031°02'0 0.0
2014-Aug-21 04:32S 29°52' E 031°02'0 0.0
2014-Aug-21 03:32S 29°52' E 031°02'0 0.0
2014-Aug-21 02:32S 29°52' E 031°02'0 0.0
2014-Aug-21 01:32S 29°52' E 031°02'0 0.0
2014-Aug-21 00:32S 29°52' E 031°02'0 0.0
2014-Aug-20 23:32S 29°52' E 031°02'0 0.0
2014-Aug-20 22:32S 29°52' E 031°02'0 0.0
2014-Aug-20 21:32S 29°52' E 031°02'2 2.4
2014-Aug-20 20:33S 29°51' E 031°04'4 3.8
2014-Aug-20 19:33S 29°50' E 031°09'2 1.5
2014-Aug-20 18:33S 29°50' E 031°10'2 2.0
2014-Aug-20 17:33S 29°51' E 031°12'5 4.8
2014-Aug-20 16:33S 29°47' E 031°13'7 7.4
2014-Aug-20 15:33S 29°39' E 031°14'7 6.8
2014-Aug-20 14:33S 29°33' E 031°16'1 0.8
2014-Aug-20 13:33S 29°32' E 031°16'1 0.9
2014-Aug-20 12:33S 29°32' E 031°17'1 0.9
2014-Aug-20 11:33S 29°32' E 031°19'1 1.0
2014-Aug-20 10:33S 29°32' E 031°20'1 0.6
2014-Aug-20 09:33S 29°32' E 031°20'1 1.0
2014-Aug-20 08:33S 29°33' E 031°21'  
Track history (hours):
 
Tides and Currents Weather Stations Pressure Air Temp Water Temp Dewpoint Dewpoint Depression Visibility Wind Speed Wind Dir Waves Ship Positions

Sincerity Ace

Last reported at 2014-Aug-30 08:15 UTC. Time now 2014-Aug-30 10:27 UTC.
Position S 32°51' E 016°53'.

Length 200 m; draft 9.3 m.

Type: Cargo ship. MMSI: 351690000.

Date/timePositionNaut miles runAvg speedWind from/ knotsBaromVisibWave heightAir tempDewpointWater temp
2014-Aug-30 08:15S 32°51' E 016°53'5118.2
2014-Aug-30 05:26S 33°32' E 017°30'5117.6
2014-Aug-30 02:32S 34°12' E 018°08'1818.6
2014-Aug-30 01:33S 34°26' E 018°22'1716.8
2014-Aug-30 00:33S 34°33' E 018°40'1716.5
2014-Aug-29 23:33S 34°39' E 018°59'1816.4
2014-Aug-29 22:27S 34°46' E 019°19'1516.4
2014-Aug-29 21:32S 34°51' E 019°37'2216.1
2014-Aug-29 20:09S 34°56' E 020°03'1115.5
2014-Aug-29 19:27S 34°54' E 020°16'1515.5
2014-Aug-29 18:29S 34°50' E 020°34'233 9.3
2014-Aug-28 17:32S 34°14' E 025°13'41 8.2
2014-Aug-28 12:30S 34°01' E 026°00'6615.0
2014-Aug-28 08:07S 33°34' E 027°12'1016.0
2014-Aug-28 07:31S 33°28' E 027°22'1515.6
2014-Aug-28 06:33S 33°19' E 027°36'1716.3
2014-Aug-28 05:32S 33°09' E 027°52'67 3.2
2014-Aug-27 08:29S 33°45' E 026°43'1917.4
2014-Aug-27 07:25S 33°52' E 026°23'16 0.5
2014-Aug-26 02:19S 33°55' E 026°04'175 5.9
2014-Aug-24 20:30S 32°21' E 029°00'152 3.7
2014-Aug-23 03:32S 30°21' E 030°51'9 0.5
2014-Aug-22 07:33S 30°13' E 030°55'1716.9
2014-Aug-22 06:33S 29°58' E 031°04'6 6.1
2014-Aug-22 05:33S 29°52' E 031°02'1 0.7
2014-Aug-22 04:32S 29°52' E 031°02'0 0.0
2014-Aug-22 03:32S 29°52' E 031°02'0 0.0
2014-Aug-22 02:26S 29°52' E 031°02'0 0.0
2014-Aug-22 01:32S 29°52' E 031°02'0 0.0
2014-Aug-22 00:32S 29°52' E 031°02'0 0.0
2014-Aug-21 23:32S 29°52' E 031°02'0 0.0
2014-Aug-21 22:32S 29°52' E 031°02'0 0.0
2014-Aug-21 21:32S 29°52' E 031°02'0 0.0
2014-Aug-21 20:32S 29°52' E 031°02'0 0.0
2014-Aug-21 19:32S 29°52' E 031°02'0 0.0
2014-Aug-21 18:32S 29°52' E 031°02'0 0.0
2014-Aug-21 17:14S 29°52' E 031°02'0 0.0
2014-Aug-21 16:32S 29°52' E 031°02'0 0.0
2014-Aug-21 15:32S 29°52' E 031°02'0 0.0
2014-Aug-21 14:32S 29°52' E 031°02'0 0.0
2014-Aug-21 13:26S 29°52' E 031°02'0 0.0
2014-Aug-21 12:32S 29°52' E 031°02'0 0.0
2014-Aug-21 11:26S 29°52' E 031°02'0 0.0
2014-Aug-21 10:32S 29°52' E 031°02'0 0.0
2014-Aug-21 09:32S 29°52' E 031°02'0 0.0
2014-Aug-21 08:32S 29°52' E 031°02'0 0.0
2014-Aug-21 07:32S 29°52' E 031°02'0 0.0
2014-Aug-21 06:32S 29°52' E 031°02'0 0.0
2014-Aug-21 05:32S 29°52' E 031°02'0 0.0
2014-Aug-21 04:32S 29°52' E 031°02'0 0.0
2014-Aug-21 03:32S 29°52' E 031°02'0 0.0
2014-Aug-21 02:32S 29°52' E 031°02'0 0.0
2014-Aug-21 01:32S 29°52' E 031°02'0 0.0
2014-Aug-21 00:32S 29°52' E 031°02'0 0.0
2014-Aug-20 23:32S 29°52' E 031°02'0 0.0
2014-Aug-20 22:32S 29°52' E 031°02'0 0.0
2014-Aug-20 21:32S 29°52' E 031°02'2 2.4
2014-Aug-20 20:33S 29°51' E 031°04'4 3.8
2014-Aug-20 19:33S 29°50' E 031°09'2 1.5
2014-Aug-20 18:33S 29°50' E 031°10'2 2.0
2014-Aug-20 17:33S 29°51' E 031°12'5 4.8
2014-Aug-20 16:33S 29°47' E 031°13'7 7.4
2014-Aug-20 15:33S 29°39' E 031°14'7 6.8
2014-Aug-20 14:33S 29°33' E 031°16'1 0.8
2014-Aug-20 13:33S 29°32' E 031°16'1 0.9
2014-Aug-20 12:33S 29°32' E 031°17'1 0.9
2014-Aug-20 11:33S 29°32' E 031°19'1 1.0
2014-Aug-20 10:33S 29°32' E 031°20'1 0.6
2014-Aug-20 09:33S 29°32' E 031°20'1 1.0
2014-Aug-20 08:33S 29°33' E 031°21'  

Dump ship's entire track history